Time;durP1;ratioP1;P1;durP2;ratioP2;P2;SDS_P1;SDS_P2;PMS_P1;PMS_P2;Temp;Humidity;BMP_temperature;BMP_pressure;BME280_temperature;BME280_humidity;BME280_pressure;Samples;Min_cycle;Max_cycle;Signal;HPM_P1;HPM_P2
2022/12/29 00:01:29;;;;;;;4.43;4.03;;;9.80;99.90;;;;;;5072123;28;20055;-66
2022/12/29 00:03:55;;;;;;;4.40;3.80;;;9.80;99.90;;;;;;5072131;28;20169;-67
2022/12/29 00:06:20;;;;;;;5.60;4.20;;;9.80;99.90;;;;;;5072989;28;20131;-67
2022/12/29 00:08:46;;;;;;;4.40;4.00;;;9.80;99.90;;;;;;5072308;28;20043;-66
2022/12/29 00:11:17;;;;;;;4.88;4.18;;;9.90;99.90;;;;;;5072906;28;20040;-67
2022/12/29 00:16:32;;;;;;;4.75;3.85;;;9.90;99.90;;;;;;5072074;28;20089;-67
2022/12/29 00:18:58;;;;;;;4.55;3.70;;;9.90;99.90;;;;;;5069986;28;20079;-67
2022/12/29 00:35:39;;;;;;;4.25;3.72;;;10.00;99.90;;;;;;5090838;28;20044;-67
2022/12/29 00:46:19;;;;;;;4.10;3.20;;;10.00;99.90;;;;;;5092637;28;20147;-67
2022/12/29 00:51:29;;;;;;;6.38;3.40;;;10.10;99.90;;;;;;5110522;28;20042;-67
2022/12/29 00:53:55;;;;;;;4.47;2.80;;;10.10;99.90;;;;;;5075510;28;20052;-67
2022/12/29 00:56:21;;;;;;;4.53;2.95;;;10.10;99.90;;;;;;5092319;28;20047;-67
2022/12/29 00:58:46;;;;;;;4.07;3.17;;;10.00;99.90;;;;;;5112350;27;20383;-67
2022/12/29 01:01:12;;;;;;;3.95;3.15;;;10.10;99.90;;;;;;5092601;28;20096;-67
2022/12/29 01:03:38;;;;;;;5.70;3.40;;;10.10;99.90;;;;;;5093045;27;20051;-66
2022/12/29 01:06:06;;;;;;;4.07;2.88;;;10.10;99.90;;;;;;5093467;28;20044;-66
2022/12/29 01:08:32;;;;;;;2.85;2.60;;;10.10;99.90;;;;;;5091391;28;20092;-66
2022/12/29 01:11:03;;;;;;;2.85;2.65;;;10.10;99.90;;;;;;5125314;27;20047;-67
2022/12/29 01:13:28;;;;;;;4.20;2.88;;;10.10;99.90;;;;;;5125414;27;20541;-66
2022/12/29 01:15:54;;;;;;;3.40;2.60;;;10.20;99.90;;;;;;5109012;27;20110;-67
2022/12/29 01:18:21;;;;;;;4.35;3.22;;;10.20;99.90;;;;;;5076633;28;20042;-66
2022/12/29 01:20:46;;;;;;;3.17;2.58;;;10.20;99.90;;;;;;5125621;27;20047;-66
2022/12/29 01:23:13;;;;;;;6.65;2.70;;;10.20;99.90;;;;;;5091329;28;20043;-67
2022/12/29 01:25:38;;;;;;;3.17;2.70;;;10.20;99.90;;;;;;5125931;27;20160;-67
2022/12/29 01:28:04;;;;;;;2.55;2.35;;;10.20;99.90;;;;;;5091963;28;20511;-66
2022/12/29 01:30:30;;;;;;;4.47;2.50;;;10.20;99.90;;;;;;5091844;28;20054;-67
2022/12/29 01:32:56;;;;;;;4.30;2.40;;;10.30;99.90;;;;;;5093413;28;20157;-67
2022/12/29 01:35:21;;;;;;;3.33;2.42;;;10.30;99.90;;;;;;5091925;28;20213;-66
2022/12/29 01:37:47;;;;;;;4.60;2.78;;;10.30;99.90;;;;;;5092069;28;20111;-67
2022/12/29 01:40:13;;;;;;;4.47;2.75;;;10.30;99.90;;;;;;5091800;28;20394;-66
2022/12/29 01:42:38;;;;;;;4.10;2.42;;;10.30;99.90;;;;;;5074991;28;20040;-68
2022/12/29 01:45:15;;;;;;;3.03;2.53;;;10.30;99.90;;;;;;5109943;28;20498;-67
2022/12/29 01:47:45;;;;;;;3.15;2.72;;;10.30;99.90;;;;;;5091540;28;20038;-66
2022/12/29 01:50:27;;;;;;;3.47;2.72;;;10.30;99.90;;;;;;5109053;28;20122;-66
2022/12/29 01:53:07;;;;;;;2.72;2.47;;;10.30;99.90;;;;;;5109329;28;20036;-66
2022/12/29 01:55:37;;;;;;;3.05;2.17;;;10.30;99.90;;;;;;5109797;28;20416;-66
2022/12/29 01:58:05;;;;;;;5.00;2.90;;;10.30;99.90;;;;;;5091662;28;20035;-68
2022/12/29 02:00:31;;;;;;;2.67;2.00;;;10.40;99.90;;;;;;5090523;28;20046;-67
2022/12/29 02:02:56;;;;;;;4.05;2.30;;;10.40;99.90;;;;;;5091509;28;20225;-68
2022/12/29 02:05:33;;;;;;;3.22;2.33;;;10.40;99.90;;;;;;5074054;28;20043;-67
2022/12/29 02:08:00;;;;;;;3.40;2.35;;;10.50;99.90;;;;;;5125449;28;20398;-67
2022/12/29 02:10:30;;;;;;;2.50;2.25;;;10.50;99.90;;;;;;5122452;28;20032;-66
2022/12/29 02:12:56;;;;;;;3.58;2.08;;;10.50;99.90;;;;;;5124801;28;20510;-67
2022/12/29 02:15:54;;;;;;;2.72;2.20;;;10.50;99.90;;;;;;5091057;28;20036;-67
2022/12/29 02:18:31;;;;;;;2.67;2.30;;;10.50;99.90;;;;;;5091130;28;20032;-67
2022/12/29 02:21:12;;;;;;;3.35;2.08;;;10.50;99.90;;;;;;5090782;28;21044;-67
2022/12/29 02:24:21;;;;;;;3.33;2.28;;;10.40;99.90;;;;;;5090924;28;20118;-67
2022/12/29 02:27:13;;;;;;;4.18;2.05;;;10.40;99.90;;;;;;5074625;28;20063;-67
2022/12/29 02:29:54;;;;;;;2.60;2.00;;;10.40;99.90;;;;;;5090938;28;20043;-67
2022/12/29 02:32:31;;;;;;;4.55;1.92;;;10.40;99.90;;;;;;5091312;28;20050;-68
2022/12/29 02:35:08;;;;;;;3.55;2.10;;;10.30;99.90;;;;;;5090617;28;20048;-66
2022/12/29 02:37:50;;;;;;;2.90;2.10;;;10.30;99.90;;;;;;5090882;28;20035;-66
2022/12/29 02:40:42;;;;;;;2.90;2.30;;;10.30;99.90;;;;;;5093155;28;20032;-67
2022/12/29 02:43:14;;;;;;;3.05;2.10;;;10.30;99.90;;;;;;5128351;27;20039;-66
2022/12/29 02:46:01;;;;;;;2.05;1.67;;;10.30;99.90;;;;;;5128973;27;20036;-66
2022/12/29 02:48:48;;;;;;;1.63;1.52;;;10.20;99.90;;;;;;5094560;28;20178;-66
2022/12/29 02:51:39;;;;;;;2.88;1.50;;;10.20;99.90;;;;;;5077907;28;20759;-66
2022/12/29 02:56:49;;;;;;;1.77;1.30;;;10.20;99.90;;;;;;5094520;28;20084;-68
2022/12/29 02:59:16;;;;;;;1.23;1.13;;;10.20;99.90;;;;;;5076795;28;20055;-66
2022/12/29 03:02:21;;;;;;;1.45;1.20;;;10.20;99.90;;;;;;5094577;28;20110;-68
2022/12/29 03:05:10;;;;;;;2.80;1.35;;;10.20;99.90;;;;;;5094806;28;20078;-66
2022/12/29 03:08:04;;;;;;;1.20;1.10;;;10.20;99.90;;;;;;5094312;28;20031;-66
2022/12/29 03:10:37;;;;;;;2.50;1.30;;;10.20;99.90;;;;;;5094332;28;20040;-67
2022/12/29 03:16:19;;;;;;;1.77;1.00;;;10.20;99.90;;;;;;5094191;28;20124;-67
2022/12/29 03:19:23;;;;;;;2.22;1.10;;;10.20;99.90;;;;;;5094483;28;20038;-67
2022/12/29 03:24:51;;;;;;;2.75;1.20;;;10.20;99.90;;;;;;5013356;28;20555;-67
2022/12/29 03:27:22;;;;;;;2.13;1.02;;;10.20;99.90;;;;;;5013124;28;20045;-67
2022/12/29 03:29:54;;;;;;;3.00;1.25;;;10.20;99.90;;;;;;5012468;28;20131;-67
2022/12/29 03:32:23;;;;;;;2.05;1.02;;;10.20;99.90;;;;;;5012652;28;20084;-67
2022/12/29 03:34:49;;;;;;;6.57;1.20;;;10.30;99.90;;;;;;5011966;28;20508;-67
2022/12/29 03:37:20;;;;;;;2.67;1.00;;;10.30;99.90;;;;;;5012692;28;20064;-66
2022/12/29 03:39:46;;;;;;;2.05;1.13;;;10.30;99.90;;;;;;5012364;28;20057;-66
2022/12/29 03:42:16;;;;;;;2.20;1.00;;;10.30;99.90;;;;;;4996330;28;20044;-66
2022/12/29 03:44:44;;;;;;;3.83;1.00;;;10.40;99.90;;;;;;5012664;28;20049;-67
2022/12/29 03:47:11;;;;;;;3.63;1.20;;;10.40;99.90;;;;;;5012271;28;20100;-67
2022/12/29 03:49:37;;;;;;;2.85;1.10;;;10.40;99.90;;;;;;5012279;28;20044;-66
2022/12/29 03:52:03;;;;;;;2.30;1.00;;;10.30;99.90;;;;;;5011328;28;20061;-66
2022/12/29 03:54:30;;;;;;;4.43;1.50;;;10.20;99.90;;;;;;5012288;28;20083;-68
2022/12/29 03:56:55;;;;;;;5.38;1.35;;;10.20;99.90;;;;;;5012292;28;20042;-66
2022/12/29 03:59:21;;;;;;;4.32;1.38;;;10.10;99.90;;;;;;5079644;28;20406;-67
2022/12/29 04:01:47;;;;;;;3.08;1.30;;;10.00;99.90;;;;;;5073167;28;20044;-68
2022/12/29 04:04:13;;;;;;;5.03;1.20;;;10.00;99.90;;;;;;5127084;27;20044;-67
2022/12/29 04:06:39;;;;;;;3.78;1.63;;;9.90;99.90;;;;;;5092951;28;20036;-66
2022/12/29 04:09:05;;;;;;;3.85;1.33;;;9.90;99.90;;;;;;5092761;28;20052;-67
2022/12/29 04:11:31;;;;;;;3.13;1.20;;;9.80;99.90;;;;;;5126997;27;20042;-66
2022/12/29 04:13:56;;;;;;;3.42;1.13;;;9.80;99.90;;;;;;5092272;28;20055;-66
2022/12/29 04:16:22;;;;;;;2.15;0.75;;;9.70;99.90;;;;;;5111212;28;20036;-66
2022/12/29 04:18:47;;;;;;;2.75;0.90;;;9.60;99.90;;;;;;5092600;28;20034;-66
2022/12/29 04:21:13;;;;;;;2.72;1.00;;;9.60;99.90;;;;;;5092284;28;20043;-67
2022/12/29 04:23:39;;;;;;;5.20;0.98;;;9.60;99.90;;;;;;5092632;28;20038;-66
2022/12/29 04:26:09;;;;;;;3.97;1.42;;;9.60;99.90;;;;;;5109533;28;20474;-66
2022/12/29 04:28:36;;;;;;;3.65;1.40;;;9.50;99.90;;;;;;5126874;27;20498;-67
2022/12/29 04:31:03;;;;;;;6.03;1.55;;;9.50;99.90;;;;;;5126326;27;20065;-66
2022/12/29 04:33:28;;;;;;;3.17;1.35;;;9.60;99.90;;;;;;5126237;27;20040;-67
2022/12/29 04:35:54;;;;;;;4.50;1.10;;;9.60;99.90;;;;;;5092803;28;20509;-67
2022/12/29 04:38:22;;;;;;;5.47;1.25;;;9.60;99.90;;;;;;5126802;27;20035;-66
2022/12/29 04:40:48;;;;;;;7.47;1.20;;;9.60;99.90;;;;;;5127040;27;20118;-66
2022/12/29 04:43:14;;;;;;;6.07;1.30;;;9.70;99.90;;;;;;5126372;27;20118;-67
2022/12/29 04:45:47;;;;;;;7.75;1.48;;;9.70;99.90;;;;;;5126762;27;20063;-66
2022/12/29 04:48:14;;;;;;;7.20;1.30;;;9.70;99.90;;;;;;5092233;28;20057;-66
2022/12/29 04:50:40;;;;;;;5.75;1.15;;;9.70;99.90;;;;;;5090674;28;20086;-66
2022/12/29 04:53:07;;;;;;;8.90;2.10;;;9.70;99.90;;;;;;5126398;27;20044;-67
2022/12/29 04:55:33;;;;;;;8.50;1.35;;;9.70;99.90;;;;;;5126748;27;20118;-66
2022/12/29 04:57:59;;;;;;;10.32;1.30;;;9.70;99.90;;;;;;5126430;27;20540;-67
2022/12/29 05:00:25;;;;;;;4.80;1.00;;;9.70;99.90;;;;;;5091984;28;20099;-67
2022/12/29 05:02:50;;;;;;;9.30;1.67;;;9.70;99.90;;;;;;5091926;28;20466;-66
2022/12/29 05:05:16;;;;;;;6.22;1.00;;;9.70;99.90;;;;;;5091901;28;20505;-66
2022/12/29 05:07:42;;;;;;;6.32;1.00;;;9.70;99.90;;;;;;5091997;28;20118;-67
2022/12/29 05:10:08;;;;;;;6.72;1.35;;;9.70;99.90;;;;;;5126089;27;20044;-66
2022/12/29 05:12:36;;;;;;;7.32;1.15;;;9.70;99.90;;;;;;5126224;27;20389;-66
2022/12/29 05:15:05;;;;;;;3.60;0.93;;;9.70;99.90;;;;;;5092381;28;20044;-66
2022/12/29 05:17:30;;;;;;;8.00;1.25;;;9.70;99.90;;;;;;5091862;28;20043;-66
2022/12/29 05:19:56;;;;;;;7.95;1.75;;;9.70;99.90;;;;;;5075049;28;20040;-67
2022/12/29 05:22:22;;;;;;;5.30;1.02;;;9.70;99.90;;;;;;5091674;28;20093;-67
2022/12/29 05:24:48;;;;;;;3.65;1.00;;;9.70;99.90;;;;;;5091639;28;20067;-66
2022/12/29 05:27:13;;;;;;;6.93;1.00;;;9.70;99.90;;;;;;5091739;28;20126;-66
2022/12/29 05:29:39;;;;;;;4.97;0.90;;;9.60;99.90;;;;;;5125865;27;20043;-67
2022/12/29 05:32:05;;;;;;;4.68;1.02;;;9.60;99.90;;;;;;5092227;28;21075;-67
2022/12/29 05:34:31;;;;;;;5.47;0.90;;;9.70;99.90;;;;;;5091680;28;20052;-67
2022/12/29 05:36:57;;;;;;;7.68;1.65;;;9.60;99.90;;;;;;5091779;28;20478;-66
2022/12/29 05:39:22;;;;;;;5.18;1.33;;;9.60;99.90;;;;;;5091641;28;20035;-68
2022/12/29 05:41:48;;;;;;;7.15;1.33;;;9.60;99.90;;;;;;5091401;28;20098;-66
2022/12/29 05:44:14;;;;;;;3.65;1.00;;;9.70;99.90;;;;;;5091457;28;20085;-66
2022/12/29 05:46:39;;;;;;;8.80;1.60;;;9.70;99.90;;;;;;5091750;28;20100;-66
2022/12/29 05:49:05;;;;;;;5.53;1.23;;;9.60;99.90;;;;;;5110090;28;20078;-67
2022/12/29 05:51:31;;;;;;;7.50;2.05;;;9.60;99.90;;;;;;5091812;28;20035;-67
2022/12/29 05:53:57;;;;;;;5.35;1.10;;;9.70;99.90;;;;;;5087481;28;20086;-66
2022/12/29 05:56:23;;;;;;;5.70;1.67;;;9.60;99.90;;;;;;5109584;28;20100;-66
2022/12/29 05:58:48;;;;;;;5.00;1.20;;;9.60;99.90;;;;;;5090995;28;20035;-67
2022/12/29 06:01:14;;;;;;;7.72;1.67;;;9.60;99.90;;;;;;5091073;28;20460;-66
2022/12/29 06:03:40;;;;;;;5.20;1.30;;;9.60;99.90;;;;;;5091289;28;20110;-67
2022/12/29 06:06:05;;;;;;;6.03;1.23;;;9.60;99.90;;;;;;5091176;28;20399;-67
2022/12/29 06:08:31;;;;;;;6.70;1.65;;;9.60;99.90;;;;;;5091197;28;20547;-66
2022/12/29 06:10:57;;;;;;;10.27;2.33;;;9.50;99.90;;;;;;5090675;28;20043;-66
2022/12/29 06:13:22;;;;;;;10.50;1.80;;;9.50;99.90;;;;;;5091428;28;20371;-67
2022/12/29 06:15:49;;;;;;;9.77;1.35;;;9.50;99.90;;;;;;5078000;28;20466;-66
2022/12/29 06:18:15;;;;;;;5.25;1.00;;;9.50;99.90;;;;;;5112065;28;20063;-66
2022/12/29 06:20:40;;;;;;;7.10;1.20;;;9.50;99.90;;;;;;5095051;28;20512;-65
2022/12/29 06:23:06;;;;;;;7.45;1.30;;;9.50;99.90;;;;;;5094448;28;20059;-67
2022/12/29 06:25:33;;;;;;;6.18;1.38;;;9.60;99.90;;;;;;5095037;28;20046;-67
2022/12/29 06:27:59;;;;;;;8.38;1.33;;;9.60;99.90;;;;;;5095344;28;20566;-66
2022/12/29 06:30:25;;;;;;;8.98;1.50;;;9.60;99.90;;;;;;5095136;28;20039;-66
2022/12/29 06:32:51;;;;;;;8.32;1.75;;;9.60;99.90;;;;;;5077915;28;20521;-67
2022/12/29 06:35:17;;;;;;;8.05;1.38;;;9.60;99.90;;;;;;5094782;28;20048;-67
2022/12/29 06:37:43;;;;;;;10.38;1.67;;;9.50;99.90;;;;;;5095177;28;20036;-67
2022/12/29 06:40:09;;;;;;;8.38;1.60;;;9.50;99.90;;;;;;5128889;27;20043;-66
2022/12/29 06:42:35;;;;;;;7.95;1.42;;;9.50;99.90;;;;;;5094999;28;20044;-67
2022/12/29 06:45:01;;;;;;;5.88;1.52;;;9.50;99.90;;;;;;5129258;27;20045;-68
2022/12/29 06:47:27;;;;;;;6.43;1.58;;;9.50;99.90;;;;;;5112819;28;20287;-66
2022/12/29 06:49:52;;;;;;;7.75;1.27;;;9.50;99.90;;;;;;5077980;28;20036;-67
2022/12/29 06:52:18;;;;;;;9.60;1.92;;;9.50;99.90;;;;;;5094753;28;20052;-66
2022/12/29 06:54:44;;;;;;;7.82;1.73;;;9.50;99.90;;;;;;5094331;28;20046;-67
2022/12/29 06:57:09;;;;;;;9.27;1.38;;;9.50;99.90;;;;;;5077013;28;20486;-67
2022/12/29 06:59:35;;;;;;;7.47;1.35;;;9.60;99.90;;;;;;5095082;27;20040;-66
2022/12/29 07:02:01;;;;;;;10.25;2.17;;;9.60;99.90;;;;;;5076569;28;20042;-67
2022/12/29 07:04:28;;;;;;;10.55;1.70;;;9.60;99.90;;;;;;5094748;28;20073;-68
2022/12/29 07:06:53;;;;;;;7.75;1.60;;;9.60;99.90;;;;;;5094918;28;20088;-67
2022/12/29 07:09:19;;;;;;;11.15;2.10;;;9.60;99.90;;;;;;5094273;28;20482;-68
2022/12/29 07:11:45;;;;;;;7.90;1.80;;;9.60;99.90;;;;;;5128534;27;20044;-66
2022/12/29 07:14:11;;;;;;;10.10;1.70;;;9.60;99.90;;;;;;5093554;27;20046;-67
2022/12/29 07:16:37;;;;;;;11.65;2.35;;;9.50;99.90;;;;;;5127686;27;20039;-66
2022/12/29 07:19:03;;;;;;;12.50;2.58;;;9.50;99.90;;;;;;5128507;27;20169;-66
2022/12/29 07:21:29;;;;;;;14.02;2.97;;;9.50;99.90;;;;;;5111426;27;20460;-67
2022/12/29 07:23:55;;;;;;;9.23;1.60;;;9.50;99.90;;;;;;5111001;27;20093;-70
2022/12/29 07:26:21;;;;;;;15.85;3.40;;;9.40;99.90;;;;;;5093986;28;20083;-67
2022/12/29 07:28:47;;;;;;;11.07;1.70;;;9.50;99.90;;;;;;5092972;28;20096;-68
2022/12/29 07:31:21;;;;;;;8.48;2.00;;;9.40;99.90;;;;;;5093770;28;20076;-68
2022/12/29 07:33:47;;;;;;;8.35;1.70;;;9.40;99.90;;;;;;5093581;28;20058;-70
2022/12/29 07:36:14;;;;;;;11.88;2.25;;;9.40;99.90;;;;;;5128117;27;20488;-68
2022/12/29 07:38:41;;;;;;;8.85;1.52;;;9.40;99.90;;;;;;5109642;27;20040;-67
2022/12/29 07:41:07;;;;;;;10.90;1.77;;;9.50;99.90;;;;;;5127851;27;20115;-69
2022/12/29 07:43:33;;;;;;;10.13;1.70;;;9.40;99.90;;;;;;5124497;27;20394;-68
2022/12/29 07:45:59;;;;;;;8.13;1.67;;;9.40;99.90;;;;;;5124195;27;20047;-68
2022/12/29 07:48:24;;;;;;;12.30;1.80;;;9.50;99.90;;;;;;5094282;28;20054;-68
2022/12/29 07:50:50;;;;;;;13.32;2.53;;;9.50;99.90;;;;;;5093136;28;20070;-70
2022/12/29 07:53:16;;;;;;;10.63;1.95;;;9.50;99.90;;;;;;5076324;28;20493;-67
2022/12/29 07:55:42;;;;;;;8.55;1.42;;;9.40;99.90;;;;;;5090575;27;20046;-69
2022/12/29 07:58:07;;;;;;;9.38;1.65;;;9.40;99.90;;;;;;5093250;28;20051;-69
2022/12/29 08:00:33;;;;;;;8.45;1.65;;;9.40;99.90;;;;;;5090995;28;20132;-69
2022/12/29 08:02:59;;;;;;;16.08;2.65;;;9.40;99.90;;;;;;5093526;28;20036;-68
2022/12/29 08:05:25;;;;;;;12.18;2.05;;;9.40;99.90;;;;;;5093588;28;20039;-67
2022/12/29 08:07:50;;;;;;;16.10;2.03;;;9.40;99.90;;;;;;5093089;28;20047;-69
2022/12/29 08:10:16;;;;;;;11.05;2.17;;;9.40;99.90;;;;;;5126944;27;20043;-70
2022/12/29 08:12:43;;;;;;;9.23;1.98;;;9.40;99.90;;;;;;5093138;28;20036;-68
2022/12/29 08:15:10;;;;;;;15.32;3.03;;;9.40;99.90;;;;;;5109288;28;20116;-68
2022/12/29 08:17:36;;;;;;;14.90;2.30;;;9.40;99.90;;;;;;5127287;27;20096;-67
2022/12/29 08:20:02;;;;;;;13.00;2.58;;;9.50;99.90;;;;;;5075943;28;20062;-70
2022/12/29 08:22:28;;;;;;;12.05;2.20;;;9.40;99.90;;;;;;5093013;28;20036;-68
2022/12/29 08:24:53;;;;;;;17.33;2.60;;;9.50;99.90;;;;;;5093087;28;20517;-70
2022/12/29 08:27:19;;;;;;;11.65;2.20;;;9.50;99.90;;;;;;5092713;28;20403;-68
2022/12/29 08:29:45;;;;;;;12.57;2.22;;;9.50;99.90;;;;;;5092845;28;20391;-69
2022/12/29 08:32:11;;;;;;;12.90;2.88;;;9.50;99.90;;;;;;5127111;27;20079;-70
2022/12/29 08:34:37;;;;;;;11.85;2.28;;;9.50;99.90;;;;;;5092675;28;20398;-68
2022/12/29 08:37:02;;;;;;;13.13;2.08;;;9.50;99.90;;;;;;5126272;27;20482;-69
2022/12/29 08:39:28;;;;;;;10.70;2.15;;;9.60;99.90;;;;;;5111117;28;20103;-68
2022/12/29 08:41:54;;;;;;;10.55;2.22;;;9.60;99.90;;;;;;5092771;28;20070;-68
2022/12/29 08:44:20;;;;;;;11.20;1.77;;;9.60;99.90;;;;;;5092734;28;20039;-69
2022/12/29 08:46:45;;;;;;;6.78;1.50;;;9.60;99.90;;;;;;5092516;28;20042;-68
2022/12/29 08:49:11;;;;;;;9.52;1.85;;;9.60;99.90;;;;;;5092851;28;20378;-70
2022/12/29 08:51:37;;;;;;;13.88;3.15;;;9.60;99.90;;;;;;5074632;28;20550;-68
2022/12/29 08:54:02;;;;;;;11.07;1.85;;;9.60;99.90;;;;;;5092425;28;20127;-68
2022/12/29 08:56:28;;;;;;;11.43;1.95;;;9.60;99.90;;;;;;5092293;28;20051;-70
2022/12/29 08:58:54;;;;;;;8.55;2.00;;;9.60;99.90;;;;;;5108971;28;20083;-68
2022/12/29 09:01:20;;;;;;;8.32;1.45;;;9.60;99.90;;;;;;5126287;27;20074;-68
2022/12/29 09:03:47;;;;;;;9.60;1.77;;;9.60;99.90;;;;;;5126659;27;20450;-68
2022/12/29 09:06:14;;;;;;;8.82;1.80;;;9.50;99.90;;;;;;5126427;27;20044;-68
2022/12/29 09:08:39;;;;;;;12.38;2.10;;;9.50;99.90;;;;;;5092063;28;20081;-68
2022/12/29 09:11:25;;;;;;;12.40;2.05;;;9.40;99.90;;;;;;5092202;28;20075;-68
2022/12/29 09:13:51;;;;;;;11.60;1.75;;;9.30;99.90;;;;;;5126203;27;20040;-68
2022/12/29 09:16:17;;;;;;;11.50;2.03;;;9.30;99.90;;;;;;5092051;28;20082;-68
2022/12/29 09:18:44;;;;;;;10.45;2.10;;;9.30;99.90;;;;;;5091934;28;20042;-66
2022/12/29 09:21:11;;;;;;;8.27;2.25;;;9.20;99.90;;;;;;5091852;28;20031;-68
2022/12/29 09:23:37;;;;;;;15.32;1.98;;;9.20;99.90;;;;;;5091752;28;20099;-68
2022/12/29 09:26:03;;;;;;;12.90;1.90;;;9.20;99.90;;;;;;5091941;28;20078;-67
2022/12/29 09:28:29;;;;;;;9.88;2.10;;;9.20;99.90;;;;;;5126490;27;20070;-68
2022/12/29 09:30:56;;;;;;;11.93;1.92;;;9.20;99.90;;;;;;5126005;27;20382;-68
2022/12/29 09:33:22;;;;;;;14.85;2.95;;;9.20;99.90;;;;;;5091682;28;20471;-69
2022/12/29 09:35:56;;;;;;;10.05;2.40;;;9.20;99.90;;;;;;5088707;28;20048;-70
2022/12/29 09:38:23;;;;;;;11.65;2.20;;;9.20;99.90;;;;;;5124939;28;20035;-69
2022/12/29 09:40:52;;;;;;;12.35;2.80;;;9.10;99.90;;;;;;5091369;28;20529;-68
2022/12/29 09:43:26;;;;;;;10.48;2.30;;;9.10;99.90;;;;;;5092005;28;20043;-69
2022/12/29 09:45:59;;;;;;;8.05;1.70;;;9.10;99.90;;;;;;5091291;28;20027;-69
2022/12/29 09:48:33;;;;;;;17.33;2.30;;;9.00;99.90;;;;;;5074826;28;20036;-68
2022/12/29 09:51:03;;;;;;;11.38;2.08;;;9.00;99.90;;;;;;5129475;27;20031;-68
2022/12/29 09:54:22;;;;;;;13.43;2.15;;;9.00;99.90;;;;;;5095800;28;20031;-68
2022/12/29 09:56:48;;;;;;;13.65;2.15;;;9.00;99.90;;;;;;5017673;28;20041;-69
2022/12/29 09:59:19;;;;;;;9.07;1.88;;;9.00;99.90;;;;;;5033898;28;20075;-67
2022/12/29 10:02:12;;;;;;;9.90;1.70;;;9.00;99.90;;;;;;5034278;28;20053;-68
2022/12/29 10:04:38;;;;;;;11.25;2.17;;;9.00;99.90;;;;;;5050938;28;20531;-67
2022/12/29 10:07:22;;;;;;;11.27;2.40;;;9.10;99.90;;;;;;5033795;28;20075;-68
2022/12/29 10:10:03;;;;;;;11.50;2.20;;;9.10;99.90;;;;;;5067776;28;20083;-68
2022/12/29 10:12:49;;;;;;;10.75;2.10;;;9.10;99.90;;;;;;5034270;28;20045;-68
2022/12/29 10:15:42;;;;;;;11.27;2.35;;;9.10;99.90;;;;;;5050760;28;20043;-68
2022/12/29 10:18:11;;;;;;;14.63;1.98;;;9.20;99.90;;;;;;5033960;28;20062;-69
2022/12/29 10:20:52;;;;;;;8.35;1.70;;;9.10;99.90;;;;;;5034066;28;20077;-69
2022/12/29 10:23:51;;;;;;;10.18;2.15;;;9.10;99.90;;;;;;5050423;28;20106;-68
2022/12/29 10:26:28;;;;;;;9.95;1.90;;;9.10;99.90;;;;;;4940885;28;20051;-68
2022/12/29 10:29:33;;;;;;;14.75;1.83;;;9.00;99.90;;;;;;4994432;28;20084;-68
2022/12/29 10:32:22;;;;;;;10.60;2.45;;;8.90;99.90;;;;;;4917400;29;20158;-68
2022/12/29 10:34:53;;;;;;;9.75;1.65;;;8.80;99.90;;;;;;4932095;29;20126;-67
2022/12/29 10:37:22;;;;;;;9.02;2.17;;;8.80;99.90;;;;;;4916265;29;20103;-68
2022/12/29 10:39:55;;;;;;;12.85;2.15;;;8.80;99.90;;;;;;4917534;29;20079;-68
2022/12/29 10:42:44;;;;;;;10.05;1.58;;;8.80;99.90;;;;;;4916031;29;20079;-68
2022/12/29 10:45:15;;;;;;;9.32;1.63;;;8.80;99.90;;;;;;4916485;29;20059;-67
2022/12/29 10:48:13;;;;;;;7.60;1.90;;;8.80;99.90;;;;;;4916974;29;20052;-68
2022/12/29 10:50:42;;;;;;;5.93;2.03;;;8.80;99.90;;;;;;4913294;29;20051;-67
2022/12/29 10:53:19;;;;;;;13.07;2.50;;;8.90;99.90;;;;;;4931980;29;20191;-68
2022/12/29 10:55:45;;;;;;;7.60;1.80;;;9.00;99.90;;;;;;4916867;29;20411;-69
2022/12/29 10:58:14;;;;;;;8.85;2.00;;;9.00;99.90;;;;;;4932804;29;20040;-69
2022/12/29 11:00:41;;;;;;;7.95;1.60;;;9.10;99.90;;;;;;4916516;28;20202;-68
2022/12/29 11:03:54;;;;;;;10.23;1.60;;;9.00;99.90;;;;;;4978585;28;20042;-68
2022/12/29 11:06:25;;;;;;;10.48;1.60;;;9.00;99.90;;;;;;4994749;28;20100;-70
2022/12/29 11:08:58;;;;;;;10.50;1.63;;;8.90;99.90;;;;;;5095874;28;20036;-67
2022/12/29 11:11:26;;;;;;;;;;;8.80;99.90;;;;;;5095994;28;20074;-68
2022/12/29 11:13:57;;;;;;;9.38;1.80;;;8.80;99.90;;;;;;5095536;28;20357;-68
2022/12/29 11:16:34;;;;;;;6.25;1.60;;;8.70;99.90;;;;;;5129697;27;20148;-67
2022/12/29 11:19:01;;;;;;;11.38;2.00;;;8.70;99.90;;;;;;5112442;28;20498;-67
2022/12/29 11:21:40;;;;;;;11.65;2.60;;;8.70;99.90;;;;;;5129067;27;20038;-69
2022/12/29 11:24:20;;;;;;;9.95;1.70;;;8.80;99.90;;;;;;5129569;27;20043;-68
2022/12/29 11:26:46;;;;;;;10.63;2.05;;;8.90;99.90;;;;;;5125524;27;20039;-67
2022/12/29 11:29:39;;;;;;;12.00;2.25;;;8.90;99.90;;;;;;5128820;27;20035;-69
2022/12/29 11:32:26;;;;;;;11.60;1.88;;;8.90;99.90;;;;;;5086782;28;20055;-68
2022/12/29 11:34:52;;;;;;;12.23;2.08;;;8.90;99.90;;;;;;5128743;27;20486;-67
2022/12/29 11:37:25;;;;;;;10.27;1.90;;;8.90;99.90;;;;;;5094493;28;20448;-67
2022/12/29 11:40:04;;;;;;;11.88;2.20;;;8.90;99.90;;;;;;5094613;28;20032;-69
2022/12/29 11:42:57;;;;;;;13.40;2.25;;;8.90;99.90;;;;;;5094243;28;20039;-67
2022/12/29 11:45:26;;;;;;;13.02;2.40;;;8.90;99.90;;;;;;5094238;28;20048;-67
2022/12/29 11:47:56;;;;;;;12.93;2.17;;;8.90;99.90;;;;;;5128968;27;20041;-67
2022/12/29 11:50:26;;;;;;;12.45;2.25;;;8.80;99.90;;;;;;5094472;28;20045;-67
2022/12/29 11:53:01;;;;;;;13.90;2.95;;;8.90;99.90;;;;;;5094415;28;20047;-68
2022/12/29 11:55:28;;;;;;;14.07;2.50;;;8.90;99.90;;;;;;5093811;28;20517;-67
2022/12/29 11:57:56;;;;;;;10.90;2.90;;;8.90;99.90;;;;;;5094079;28;20115;-68
2022/12/29 12:00:24;;;;;;;12.07;2.50;;;8.90;99.90;;;;;;5111969;28;20486;-67
2022/12/29 12:02:54;;;;;;;10.85;2.60;;;8.90;99.90;;;;;;5128729;27;20434;-67
2022/12/29 12:05:27;;;;;;;12.40;2.50;;;8.90;99.90;;;;;;5128272;27;20100;-68
2022/12/29 12:08:23;;;;;;;16.98;2.92;;;8.90;99.90;;;;;;5094765;28;20496;-67
2022/12/29 12:10:59;;;;;;;21.95;3.25;;;8.90;99.90;;;;;;5069018;28;20065;-67
2022/12/29 12:14:00;;;;;;;14.57;3.35;;;8.90;99.90;;;;;;5093753;28;20508;-67
2022/12/29 12:16:50;;;;;;;17.13;3.95;;;8.90;99.90;;;;;;5128365;27;20081;-69
2022/12/29 12:19:34;;;;;;;15.30;2.95;;;9.00;99.90;;;;;;5128058;27;20031;-68
2022/12/29 12:22:19;;;;;;;14.70;2.55;;;9.00;99.90;;;;;;5092965;28;20035;-67
2022/12/29 12:24:55;;;;;;;17.83;2.72;;;9.00;99.90;;;;;;5092893;28;20074;-68
2022/12/29 12:27:53;;;;;;;16.27;2.42;;;9.00;99.90;;;;;;5127815;27;20885;-67
2022/12/29 12:30:20;;;;;;;16.67;3.08;;;9.00;99.90;;;;;;5032301;28;20134;-67
2022/12/29 12:32:54;;;;;;;17.90;2.47;;;9.00;99.90;;;;;;5051238;28;20072;-66
2022/12/29 12:35:36;;;;;;;22.45;3.72;;;9.00;99.90;;;;;;5052345;28;20530;-67
2022/12/29 12:38:35;;;;;;;17.63;2.70;;;8.90;99.90;;;;;;5086123;28;20050;-67
2022/12/29 12:41:21;;;;;;;12.32;2.22;;;8.90;99.90;;;;;;5085846;28;20474;-67
2022/12/29 12:44:06;;;;;;;16.42;3.17;;;9.00;99.90;;;;;;5085685;28;20151;-67
2022/12/29 12:46:44;;;;;;;15.50;3.40;;;9.10;99.90;;;;;;5086057;28;20398;-68
2022/12/29 12:49:15;;;;;;;14.02;2.50;;;9.20;99.90;;;;;;5068751;28;20043;-68
2022/12/29 12:52:06;;;;;;;14.75;2.53;;;9.20;99.90;;;;;;5068653;28;20094;-68
2022/12/29 12:54:52;;;;;;;13.80;2.38;;;9.30;99.90;;;;;;5068635;28;20057;-66
2022/12/29 12:57:21;;;;;;;15.73;2.20;;;9.30;99.90;;;;;;5085498;28;20041;-67
2022/12/29 13:00:10;;;;;;;11.35;2.15;;;9.20;99.90;;;;;;5068404;28;20033;-68
2022/12/29 13:03:04;;;;;;;14.60;2.08;;;9.20;99.90;;;;;;5068632;28;20088;-67
2022/12/29 13:05:33;;;;;;;11.60;2.20;;;9.20;99.90;;;;;;5085747;28;20518;-67
2022/12/29 13:08:39;;;;;;;14.30;2.13;;;9.10;99.90;;;;;;5099667;27;20074;-67
2022/12/29 13:11:20;;;;;;;12.57;2.10;;;9.10;99.90;;;;;;5089917;28;20044;-66
2022/12/29 13:14:16;;;;;;;15.38;2.67;;;9.10;99.90;;;;;;5089521;28;20048;-68
2022/12/29 13:16:48;;;;;;;14.95;2.42;;;9.40;99.90;;;;;;5083134;28;20118;-67
2022/12/29 13:19:20;;;;;;;12.95;2.47;;;9.60;99.90;;;;;;5072162;28;20036;-68
2022/12/29 13:21:58;;;;;;;11.53;2.27;;;10.20;99.90;;;;;;5072244;28;20039;-67
2022/12/29 13:24:26;;;;;;;9.68;2.13;;;10.30;99.90;;;;;;5072251;28;20795;-68
2022/12/29 13:27:33;;;;;;;12.82;2.80;;;10.30;99.90;;;;;;5072241;28;20044;-67
2022/12/29 13:30:32;;;;;;;15.95;2.55;;;10.10;99.90;;;;;;5011405;28;20075;-68
2022/12/29 13:33:15;;;;;;;10.57;2.10;;;9.90;99.90;;;;;;5018862;28;20052;-67
2022/12/29 13:36:00;;;;;;;13.00;2.15;;;9.70;99.90;;;;;;5072123;28;20076;-67
2022/12/29 13:38:42;;;;;;;11.77;1.90;;;9.60;99.90;;;;;;5031422;28;20476;-67
2022/12/29 13:41:34;;;;;;;10.25;2.38;;;9.40;99.90;;;;;;5030985;28;20130;-67
2022/12/29 13:44:03;;;;;;;18.77;2.63;;;9.30;99.90;;;;;;5030157;28;20068;-67
2022/12/29 13:46:34;;;;;;;14.85;2.17;;;9.30;99.90;;;;;;5031064;28;20071;-67
2022/12/29 13:49:08;;;;;;;13.23;2.53;;;9.20;99.90;;;;;;5030876;28;20037;-67
2022/12/29 13:51:35;;;;;;;13.45;2.17;;;9.20;99.90;;;;;;5015006;28;20041;-67